Alberni-Clayoquot C, British Columbia

11:49 AM PDT on August 04, 2015 (GMT -0700)
Tofino | | Change Station
CLOSE
Current Station
Airport
Location: Tofino,
Elevation: 79 ft
Nearby Weather Stations

Elev 79 ft 49.08 °N, 125.77 °W | Updated 4 minutes ago

Mostly Cloudy
Mostly Cloudy
59 °F
Feels Like 59 °F
N
9
Wind Variable Wind from SSE

Today
High -- | Low -- °F
--% Chance of Precip.
Yesterday
High -- | Low -- °F
Precip. -- in
6:01 AM 9:01 PM
Waning Gibbous, 75% visible
Pressure 30.01 in
Visibility 12.0 miles
Clouds Scattered Clouds 1200 ft
Mostly Cloudy 24000 ft
Dew Point 55 °F
Humidity 88%
Rainfall 0.00 in
Snow Depth Not available.
UV 4 out of 12
Pollen Not available.
Air Quality Not available.
Flu Activity Not available.
SPECI CYAZ 041845Z 16008KT 12SM SCT012 BKN240 15/13 A3001 RMK SC4CC2 SLP162

More Conditions Fewer Conditions

Pressure 30.01 in
Visibility 12.0 miles
Clouds Scattered Clouds 1200 ft
Mostly Cloudy 24000 ft
Dew Point 55 °F
Humidity 88%
Rainfall 0.00 in
Snow Depth Not available.
UV 4 out of 12
Pollen Not available.
Air Quality Not available.
Flu Activity Not available.
SPECI CYAZ 041845Z 16008KT 12SM SCT012 BKN240 15/13 A3001 RMK SC4CC2 SLP162

More Conditions Fewer Conditions

10-Day Weather Forecast

×

Almanac

Astronomy

Aug. 04, 2015 Rise Set
Actual Time
Civil Twilight
Nautical Twilight
Astronomical Twilight
Moon
Length of Visible Light
Length of Day
Tomorrow will be .
, % of the Moon is Illuminated

Today's Extremes

Country Highs Country Lows

Community

WunderPhotos

Upload Photos

1,843,937 photos uploaded!

WunderBlogs® & News

Nearby

Air Quality

  Air Quality AQ Index Pollutant
Not available.

Snow Depth

Station Depth Elevation

Earthquake Activity

City Distance Mag. Time & Date
Minimum magnitude displayed is 2.5.

Coastal Water Temperatures

Place Temperature

Stations

Nearby Weather Stations

Station Location Temp. Windchill Dew Point Humidity Wind Precip. Elev Updated Type